AirNav   ATP
 
 869 users online  

87I Yazoo County Airport
Yazoo City, Mississippi, USA

GOING TO YAZOO CITY?


FAA INFORMATION EFFECTIVE 08 NOVEMBER 2018

Location

FAA Identifier: 87I
Lat/Long: 32-53-00.6000N / 090-27-50.4000W
32-53.010000N / 090-27.840000W
32.8835000 / -90.4640000
(estimated)
Elevation: 105.3 ft. / 32.1 m (surveyed)
Variation: 00E (2010)
From city: 4 miles NW of YAZOO CITY, MS
Time zone: UTC -6 (UTC -5 during Daylight Saving Time)
Zip code: 39194

Airport Operations

Airport use: Open to the public
Activation date: 11/1989
Control tower: no
ARTCC: MEMPHIS CENTER
FSS: GREENWOOD FLIGHT SERVICE STATION
NOTAMs facility: GWO (NOTAM-D service available)
Attendance: UNATNDD
Wind indicator: lighted
Segmented circle: yes
Lights: MIRL RY 17/35 PRESET LOW INTST DUSK-2200; AFTER 2200 TO INCR INTST ACTVT - CTAF. PAPI RY 17 & 35 OPER CONT.
Beacon: white-green (lighted land airport)
Operates sunset to sunrise.

Airport Communications

CTAF/UNICOM: 122.8
  • APCH/DEP SERVICE PRVDD BY MEMPHIS ARTCC ON FREQS 132.5/259.1 (JACKSON RCAG).

Nearby radio navigation aids

VOR radial/distance  VOR name  Freq  Var
MHZr327/32.6MAGNOLIA VORTAC113.2001W
SQSr192/36.1SIDON VORTAC114.7003E

Airport Services

Parking: tiedowns
Airframe service: MINOR
EMERGENCY AIRFRAME AND POWERPLANT REPAIRS CALL 662-746-8999.
Powerplant service: MINOR

Runway Information

Runway 17/35

Dimensions: 5001 x 100 ft. / 1524 x 30 m
Surface: asphalt, in good condition
Weight bearing capacity: 
Single wheel: 30.0
Double tandem: 64.0
Runway edge lights: medium intensity
RUNWAY 17  RUNWAY 35
Latitude: 32-53.419198N32-52.599020N
Longitude: 090-27.889163W090-27.789462W
Elevation: 104.2 ft.104.2 ft.
Traffic pattern: leftleft
Runway heading: 174354
Markings: nonprecision, in good conditionnonprecision, in good condition
Visual slope indicator: 2-light PAPI on left (3.00 degrees glide path)2-light PAPI on left (3.00 degrees glide path)
Touchdown point: yes, no lightsyes, no lights
Obstructions: 80 ft. trees, 3000 ft. from runway, 250 ft. left of centerline, 35:1 slope to clear53 ft. trees, 1590 ft. from runway, 26:1 slope to clear

Airport Ownership and Management from official FAA records

Ownership: Publicly-owned
Owner: COUNTY OF YAZOO
P.O.BOX 172
YAZOO CITY, MS 39194
Phone 662-746-1273
Manager: JODY CARSON
57 CODY COVE
YAZOO CITY, MS 39194
Phone 662-571-4045

Airport Operational Statistics

Aircraft based on the field: 11
Single engine airplanes: 10
Helicopters: 1
    
Aircraft operations: avg 27/day *
86% local general aviation
12% transient general aviation
1% military
* for 12-month period ending 16 February 2018

Instrument Procedures

NOTE: All procedures below are presented as PDF files. If you need a reader for these files, you should download the free Adobe Reader.

NOT FOR NAVIGATION. Please procure official charts for flight.
FAA instrument procedures published for use from 8 November 2018 at 0901Z to 6 December 2018 at 0900Z.

 
IAPs - Instrument Approach Procedures
RNAV (GPS) RWY 17   download (170KB)
RNAV (GPS) RWY 35   download (164KB)
NOTE: Special Take-Off Minimums/Departure Procedures apply   download (116KB)

Other nearby airports with instrument procedures:

19M - C A Moore Airport (26 nm NE)
KMBO - Bruce Campbell Field Airport (32 nm SE)
KJVW - John Bell Williams Airport (35 nm S)
KHKS - Hawkins Field Airport (35 nm S)
KIDL - Indianola Municipal Airport (38 nm N)
 
Loc | Ops | Rwys | IFR | FBO | Links
Com | Nav | Svcs | Stats | Notes


 
Area around 87I (Yazoo County Airport)
 
Road maps at: MapQuest Bing Google
 
Aerial photo
WARNING: Photo may not be current or correct
Aerial photo of 87I (Yazoo County Airport)
Photo by Bart Barrack
Photo taken 18-Nov-2008
from 9500 feet MSL

Do you have a better or more recent aerial photo of Yazoo County Airport that you would like to share? If so, please send us your photo.

 
Sectional chart

 
Airport distance calculator
Flying to Yazoo County Airport? Find the distance to fly.

From to 87I

Sunrise and sunset
Times for 17-Nov-2018
 Local
(UTC-6)
 Zulu
(UTC)
Morning civil twilight06:0912:09
Sunrise06:3512:35
Sunset16:5922:59
Evening civil twilight17:2523:25

Current date and time
Zulu (UTC)  17-Nov-2018 22:37:24
Local (UTC-6)  17-Nov-2018 16:37:24
 
METAR
KMBO 
32nm SE 
172215Z AUTO 00000KT 10SM CLR 15/08 A3017 RMK AO2
KJVW 
35nm S 
172215Z AUTO 19004KT 9SM CLR 17/05 A3017 RMK AO2
KHKS 
35nm S 
172153Z 18005KT 10SM CLR 17/07 A3018 RMK AO2 SLP215 T01720072
KJAN 
39nm SE 
172154Z 18004KT 10SM BKN250 17/07 A3018 RMK AO2 SLP219 T01670067 $
KGWO 
42nm NE 
172153Z AUTO 22006KT 10SM CLR 17/06 A3017 RMK AO2 SLP214 T01720056
KTVR 
43nm SW 
172153Z AUTO 19004KT 10SM CLR 17/06 A3017 RMK AO2 SLP223 T01670061
KGLH 
45nm NW 
172153Z 17010KT 10SM CLR 17/05 A3015 RMK AO2 SLP218 T01720050
KVKS 
46nm SW 
172215Z AUTO 15004KT 10SM CLR 18/05 A3017 RMK A01
TAF
KHKS 
35nm S 
171734Z 1718/1818 19004KT P6SM SCT250 FM181100 00000KT 6SM BR FEW250 FM181330 18003KT P6SM FEW250
KJAN 
39nm SE 
171734Z 1718/1818 19004KT P6SM SCT250 FM181100 00000KT 5SM BR FEW250 FM181330 18003KT P6SM FEW250
KGWO 
42nm NE 
171734Z 1718/1818 21006KT P6SM FEW250 FM172300 17004KT P6SM FEW250 FM181000 VRB03KT 5SM BR FEW250 FM181400 18005KT P6SM FEW250
NOTAMs
Click for the latest NOTAMs
NOTAMs are issued by the DoD/FAA and will open in a separate window not controlled by AirNav.

 

 
 

Would you like to see your business listed on this page?

 If your business provides an interesting product or service to pilots, flight crews, aircraft, or users of the Yazoo County Airport, you should consider listing it here.  To start the listing process, click on the button below
 
Add a business
 

Other Pages about Yazoo County Airport

www.yazoocounty.net/yazoo-county-airport
 
Update a link
 
Copyright © AirNav, LLC. All rights reserved. Privacy Policy  Contact